Flight Track Log - Related Links

Times and Time Zones

All times are in EDT time to prevent confusion due to time zone crossing. See the UAL395 flight status page for this flight to view local times or setup timezone preferences in your user account.

Time Position Orientation Groundspeed Altitude Reporting Facility
EDT Latitude Longitude Course Direction KTS MPH feet Rate Location/Type
Mon 07:35:29 PM 42.0000 -87.9500 294° West 161 185 1,900  Level Chicago TRACON
Mon 07:36:23 PM 42.0167 -88.0000 294° West 172 198 3,200 1,421 Climbing Chicago TRACON
Mon 07:37:23 PM 42.0333 -88.0833 285° West 237 273 4,600 1,080 Climbing Chicago TRACON
Mon 07:38:03 PM 42.0372 -88.1353 276° West 231 266 5,000 706 Climbing Chicago Center
Mon 07:39:05 PM 41.9847 -88.1942 220° Southwest 246 283 5,800 1,597 Climbing Chicago Center
Mon 07:40:07 PM 41.9297 -88.2561 220° Southwest 260 299 8,300 2,710 Climbing Chicago Center
Mon 07:41:09 PM 41.9217 -88.3792 265° West 285 328 11,400 2,323 Climbing Chicago Center
Mon 07:42:11 PM 41.9150 -88.4839 265° West 283 326 13,100 816 Climbing Chicago Center
Mon 07:43:14 PM 41.9075 -88.5878 264° West 284 327 13,100  Level Chicago Center
Mon 07:44:16 PM 41.8983 -88.6942 263° West 286 329 13,100 290 Level Chicago Center
Mon 07:45:18 PM 41.8881 -88.8031 263° West 296 341 13,700 1,113 Climbing Chicago Center
Mon 07:46:20 PM 41.8806 -88.9511 266° West 332 382 15,400 2,032 Climbing Chicago Center
Mon 07:48:24 PM 41.8878 -89.2167 272° West 351 404 20,000 1,124 Climbing Chicago Center
Mon 08:02:53 PM 41.5725 -91.3228 259° West 406 467 34,000 901 Climbing Chicago Center
Mon 08:03:56 PM 41.5458 -91.4686 256° West 406 467 34,000  Level Chicago Center
Mon 08:04:58 PM 41.5194 -91.6125 262° West 403 464 34,000  Level Chicago Center
Mon 08:06:00 PM 41.5058 -91.7625 263° West 409 471 34,000  Level Chicago Center
Mon 08:07:02 PM 41.4878 -91.9417 262° West 409 471 34,000  Level Chicago Center
Mon 08:08:04 PM 41.4736 -92.0903 263° West 408 470 34,000  Level Chicago Center
Mon 08:09:06 PM 41.4589 -92.2419 263° West 413 475 34,000  Level Chicago Center
Mon 08:10:08 PM 41.4417 -92.4097 262° West 414 476 34,000  Level Chicago Center
Mon 08:11:10 PM 41.4275 -92.5611 263° West 416 479 34,000  Level Chicago Center
Mon 08:12:12 PM 41.4117 -92.7117 262° West 416 479 34,000  Level Chicago Center
Mon 08:12:32 PM 41.4050 -92.7736 262° West 416 479 34,000  Level Minneapolis Center
Mon 08:13:34 PM 41.3897 -92.9253 262° West 418 481 34,000  Level Minneapolis Center
Mon 08:14:35 PM 41.3731 -93.0775 262° West 419 482 34,000  Level Minneapolis Center
Mon 08:15:37 PM 41.3575 -93.2294 262° West 420 483 34,000  Level Minneapolis Center
Mon 08:16:39 PM 41.3406 -93.3831 262° West 422 486 34,000  Level Minneapolis Center
Mon 08:17:41 PM 41.3217 -93.5642 262° West 416 479 34,000  Level Minneapolis Center
Mon 08:18:43 PM 41.3047 -93.7156 262° West 416 479 34,000  Level Minneapolis Center
Mon 08:19:45 PM 41.2889 -93.8672 262° West 419 482 34,000  Level Minneapolis Center
Mon 08:20:47 PM 41.2714 -94.0197 261° West 421 484 34,000  Level Minneapolis Center
Mon 08:21:49 PM 41.2506 -94.2028 261° West 423 487 34,000  Level Minneapolis Center
Mon 08:22:51 PM 41.2317 -94.3533 261° West 420 483 34,000  Level Minneapolis Center
Mon 08:23:52 PM 41.2128 -94.5069 261° West 420 483 34,000  Level Minneapolis Center
Mon 08:24:54 PM 41.1961 -94.6614 262° West 423 487 34,000  Level Minneapolis Center
Mon 08:25:56 PM 41.1772 -94.8153 261° West 423 487 34,000  Level Minneapolis Center
Mon 08:26:58 PM 41.1581 -94.9686 261° West 422 486 34,000  Level Minneapolis Center
Mon 08:28:00 PM 41.1350 -95.1517 261° West 421 484 34,000  Level Minneapolis Center
Mon 08:29:02 PM 41.1150 -95.3067 260° West 424 488 34,000  Level Minneapolis Center
Mon 08:30:04 PM 41.0947 -95.4608 260° West 425 489 34,000  Level Minneapolis Center
Mon 08:31:06 PM 41.0744 -95.6161 260° West 425 489 34,000  Level Minneapolis Center
Mon 08:32:08 PM 41.0536 -95.7722 260° West 426 490 34,000  Level Minneapolis Center
Mon 08:33:10 PM 41.0322 -95.9292 260° West 428 493 34,000  Level Minneapolis Center
Mon 08:34:12 PM 41.0122 -96.0867 260° West 429 494 34,000  Level Minneapolis Center
Mon 08:35:14 PM 40.9925 -96.2422 261° West 427 491 34,000  Level Minneapolis Center
Mon 08:36:16 PM 40.9661 -96.4283 259° West 427 491 34,000  Level Minneapolis Center
Mon 08:37:18 PM 40.9456 -96.5814 260° West 424 488 34,000  Level Minneapolis Center
Mon 08:38:20 PM 40.9228 -96.7369 259° West 427 491 34,000  Level Minneapolis Center
Mon 08:39:22 PM 40.8833 -96.8853 251° West 427 491 34,000  Level Minneapolis Center
Mon 08:40:24 PM 40.8400 -97.0339 249° West 431 496 34,000  Level Minneapolis Center
Mon 08:41:26 PM 40.7972 -97.1808 249° West 431 496 34,000  Level Minneapolis Center
Mon 08:42:28 PM 40.7556 -97.3261 249° West 426 490 34,000  Level Minneapolis Center
Mon 08:43:30 PM 40.7036 -97.5067 249° West 428 493 34,000  Level Minneapolis Center
Mon 08:44:32 PM 40.6619 -97.6533 250° West 427 491 34,000  Level Minneapolis Center
Mon 08:45:34 PM 40.6186 -97.7986 249° West 426 490 34,000  Level Minneapolis Center
Mon 08:46:36 PM 40.5758 -97.9428 249° West 424 488 34,000  Level Minneapolis Center
Mon 08:47:38 PM 40.5336 -98.0875 249° West 422 486 34,000  Level Minneapolis Center
Mon 08:48:40 PM 40.4900 -98.2314 248° West 422 486 34,000  Level Minneapolis Center
Mon 08:49:43 PM 40.4478 -98.3761 249° West 423 487 34,000  Level Minneapolis Center
Mon 08:50:45 PM 40.4039 -98.5208 248° West 424 488 34,000  Level Minneapolis Center
Mon 08:51:47 PM 40.3517 -98.6922 247° West 421 484 34,000  Level Minneapolis Center
Mon 08:52:00 PM 40.3530 -98.6799 247° West  Level FlightAware Approximate
Mon 08:52:49 PM 40.3081 -98.8331 248° West 418 481 34,000  Level Minneapolis Center
Mon 08:53:51 PM 40.2656 -98.9731 248° West 414 476 34,000  Level Minneapolis Center
Mon 08:54:53 PM 40.2231 -99.1131 248° West 413 475 34,000 48 Level Minneapolis Center
Mon 08:55:55 PM 40.1792 -99.2525 248° West 413 475 34,100  Climbing Minneapolis Center
Mon 08:56:57 PM 40.1367 -99.3919 248° West 412 474 34,000 -97 Descending Minneapolis Center
Mon 08:57:59 PM 40.0933 -99.5297 248° West 411 473 33,900  Descending Minneapolis Center
Mon 08:59:01 PM 40.0411 -99.6967 248° West 412 474 34,000 48 Climbing Minneapolis Center
Mon 09:00:03 PM 39.9961 -99.8364 247° West 416 479 34,000  Level Minneapolis Center
Mon 09:01:05 PM 39.9528 -99.9769 248° West 417 480 34,000  Level Minneapolis Center
Mon 09:02:07 PM 39.9092 -100.1161 248° West 416 479 34,000  Level Minneapolis Center
Mon 09:03:11 PM 39.8642 -100.2506 246° West 411 473 34,000  Level Denver Center
Mon 09:04:13 PM 39.8408 -100.4214 260° West 407 468 34,000  Level Denver Center
Mon 09:05:15 PM 39.8228 -100.5628 261° West 410 472 34,000  Level Denver Center
Mon 09:06:17 PM 39.8025 -100.7269 261° West 415 478 34,000  Level Denver Center
Mon 09:07:19 PM 39.7864 -100.8667 262° West 410 472 34,000  Level Denver Center
Mon 09:08:21 PM 39.7694 -101.0061 261° West 407 468 34,000  Level Denver Center
Mon 09:09:23 PM 39.7186 -101.1619 247° West 416 479 34,000  Level Denver Center
Mon 09:10:25 PM 39.6692 -101.2917 244° Southwest 418 481 34,000  Level Denver Center
Mon 09:11:26 PM 39.6200 -101.4225 244° Southwest 420 483 34,000  Level Denver Center
Mon 09:12:28 PM 39.5622 -101.5700 243° Southwest 412 474 34,000  Level Denver Center
Mon 09:13:30 PM 39.5050 -101.7200 244° Southwest 415 478 34,000  Level Denver Center
Mon 09:14:32 PM 39.4764 -101.8539 255° West 411 473 34,000  Level Denver Center
Mon 09:15:34 PM 39.4542 -102.0164 260° West 410 472 34,000  Level Denver Center
Mon 09:16:36 PM 39.4347 -102.1572 260° West 416 479 34,000  Level Denver Center
Mon 09:17:38 PM 39.4164 -102.2989 261° West 417 480 34,000  Level Denver Center
Mon 09:18:40 PM 39.3978 -102.4506 261° West 418 481 34,000  Level Denver Center
Mon 09:19:42 PM 39.3817 -102.5975 262° West 415 478 34,000  Level Denver Center
Mon 09:20:44 PM 39.3483 -102.7703 256° West 417 480 34,000  Level Denver Center
Mon 09:21:45 PM 39.2936 -102.9017 242° Southwest 417 480 34,000  Level Denver Center
Mon 09:22:47 PM 39.2578 -103.0411 252° West 412 474 34,000 194 Level Denver Center
Mon 09:23:49 PM 39.2000 -103.1733 241° Southwest 422 486 34,400 726 Climbing Denver Center
Mon 09:24:51 PM 39.1417 -103.3008 239° Southwest 416 479 35,500 774 Climbing Denver Center
Mon 09:25:53 PM 39.0828 -103.4283 239° Southwest 414 476 36,000 242 Climbing Denver Center
Mon 09:26:55 PM 39.0233 -103.5564 239° Southwest 415 478 36,000  Level Denver Center
Mon 09:27:57 PM 38.9522 -103.7089 239° Southwest 415 478 36,000  Level Denver Center
Mon 09:28:59 PM 38.8928 -103.8342 239° Southwest 412 474 36,000  Level Denver Center
Mon 09:30:00 PM 38.9196 -103.9737 284° West  Level FlightAware Approximate
Mon 09:30:12 PM 38.8333 -103.9603 284° West 412 474 36,000  Level Denver Center
Mon 09:32:17 PM 38.6992 -104.2433 239° Southwest 425 489 36,000 32 Level Denver Center
Mon 09:33:18 PM 38.6358 -104.3758 239° Southwest 433 498 36,100  Climbing Denver Center
Mon 09:34:20 PM 38.5722 -104.5078 238° Southwest 434 499 36,000 -48 Descending Denver Center
Mon 09:35:22 PM 38.4967 -104.6653 239° Southwest 434 499 36,000  Level Denver Center
Mon 09:36:24 PM 38.4331 -104.7975 238° Southwest 436 502 36,000  Level Denver Center
Mon 09:37:26 PM 38.3692 -104.9286 238° Southwest 435 501 36,000  Level Denver Center
Mon 09:38:28 PM 38.3042 -105.0614 238° Southwest 433 498 36,000  Level Denver Center
Mon 09:39:30 PM 38.2344 -105.2039 238° Southwest 428 493 36,000  Level Denver Center
Mon 09:40:32 PM 38.1750 -105.3258 238° Southwest 426 490 36,000  Level Denver Center
Mon 09:41:34 PM 38.1150 -105.4472 238° Southwest 424 488 36,000  Level Denver Center
Mon 09:42:35 PM 38.0447 -105.5878 238° Southwest 424 488 36,000  Level Denver Center
Mon 09:43:37 PM 37.9861 -105.7083 238° Southwest 422 486 36,000  Level Denver Center
Mon 09:44:39 PM 37.9139 -105.8489 237° Southwest 424 488 36,000  Level Denver Center
Mon 09:45:41 PM 37.8547 -105.9681 238° Southwest 422 486 36,000  Level Denver Center
Mon 09:46:43 PM 37.7839 -106.1089 238° Southwest 424 488 36,000  Level Denver Center
Mon 09:47:45 PM 37.7225 -106.2314 238° Southwest 422 486 36,000  Level Denver Center
Mon 09:48:47 PM 37.6506 -106.3697 237° Southwest 422 486 36,000  Level Denver Center
Mon 09:49:49 PM 37.5911 -106.4886 238° Southwest 419 482 36,000  Level Denver Center
Mon 09:50:51 PM 37.5297 -106.6067 237° Southwest 421 484 36,000  Level Denver Center
Mon 09:51:53 PM 37.4606 -106.7447 238° Southwest 417 480 36,000  Level Denver Center
Mon 09:52:55 PM 37.3983 -106.8614 236° Southwest 419 482 36,000  Level Denver Center
Mon 09:53:56 PM 37.3283 -106.9975 237° Southwest 415 478 36,000  Level Denver Center
Mon 09:54:58 PM 37.2675 -107.1139 237° Southwest 415 478 36,000  Level Denver Center
Mon 09:56:00 PM 37.1969 -107.2508 237° Southwest 419 482 36,000  Level Denver Center
Mon 09:57:02 PM 37.1358 -107.3678 237° Southwest 421 484 36,000  Level Denver Center
Mon 09:58:04 PM 37.0650 -107.5022 237° Southwest 417 480 36,000  Level Denver Center
Mon 09:59:06 PM 37.0042 -107.6189 237° Southwest 417 480 36,000  Level Denver Center
Mon 10:00:08 PM 36.9317 -107.7539 236° Southwest 419 482 36,000  Level Denver Center
Mon 10:01:10 PM 36.8714 -107.8703 237° Southwest 416 479 36,000  Level Denver Center
Mon 10:02:12 PM 36.7986 -108.0047 236° Southwest 419 482 36,000  Level Denver Center
Mon 10:03:14 PM 36.7369 -108.1203 236° Southwest 418 481 36,000  Level Denver Center
Mon 10:04:16 PM 36.6858 -108.2417 242° Southwest 414 476 36,000  Level Denver Center
Mon 10:05:18 PM 36.6247 -108.3814 241° Southwest 412 474 36,000  Level Denver Center
Mon 10:06:20 PM 36.5717 -108.5019 241° Southwest 415 478 36,000  Level Denver Center
Mon 10:07:22 PM 36.5097 -108.6419 241° Southwest 416 479 36,000  Level Denver Center
Mon 10:08:24 PM 36.4572 -108.7606 241° Southwest 411 473 36,000  Level Denver Center
Mon 10:09:26 PM 36.4058 -108.8789 242° Southwest 411 473 36,000  Level Denver Center
Mon 10:10:28 PM 36.3431 -109.0175 241° Southwest 414 476 36,000  Level Denver Center
Mon 10:11:30 PM 36.2800 -109.1561 241° Southwest 417 480 36,000  Level Denver Center
Mon 10:12:32 PM 36.2256 -109.2747 240° Southwest 417 480 36,000  Level Denver Center
Mon 10:13:34 PM 36.1622 -109.4139 241° Southwest 418 481 36,000  Level Denver Center
Mon 10:14:36 PM 36.1078 -109.5328 240° Southwest 417 480 36,000  Level Denver Center
Mon 10:15:02 PM 36.0808 -109.5925 241° Southwest 417 480 36,000  Level Albuquerque Center
Mon 10:15:38 PM 36.0436 -109.6717 240° Southwest 418 481 36,000  Level Denver Center
Mon 10:16:40 PM 35.9892 -109.7908 241° Southwest 418 481 36,000  Level Denver Center
Mon 10:17:54 PM 35.9161 -109.9483 240° Southwest 415 478 36,000  Level Denver Center
Mon 10:18:56 PM 35.8525 -110.0864 240° Southwest 415 478 36,000  Level Denver Center
Mon 10:19:58 PM 35.8047 -110.1903 240° Southwest 414 476 36,000  Level Denver Center
Mon 10:20:59 PM 35.7350 -110.3389 240° Southwest 417 480 36,000  Level Denver Center
Mon 10:22:01 PM 35.6769 -110.4622 240° Southwest 416 479 36,000  Level Denver Center
Mon 10:23:03 PM 35.6186 -110.5858 240° Southwest 417 480 36,000  Level Denver Center
Mon 10:23:32 PM 35.5894 -110.6450 239° Southwest 421 484 36,000  Level Los Angeles Center
Mon 10:24:13 PM 35.5439 -110.7361 238° Southwest 421 484 36,000  Level Albuquerque Center
Mon 10:25:14 PM 35.4875 -110.8550 240° Southwest 422 486 36,000  Level Albuquerque Center
Mon 10:26:16 PM 35.4325 -110.9739 240° Southwest 420 483 36,000  Level Albuquerque Center
Mon 10:27:17 PM 35.3656 -111.1117 239° Southwest 421 484 36,000  Level Albuquerque Center
Mon 10:28:18 PM 35.3103 -111.2350 241° Southwest 420 483 36,000  Level Albuquerque Center
Mon 10:29:19 PM 35.2469 -111.3675 240° Southwest 423 487 36,000  Level Albuquerque Center
Mon 10:30:20 PM 35.1894 -111.4872 240° Southwest 415 478 36,000  Level Albuquerque Center
Mon 10:31:21 PM 35.1311 -111.6078 239° Southwest 413 475 36,000  Level Albuquerque Center
Mon 10:32:23 PM 35.0711 -111.7283 239° Southwest 416 479 36,000  Level Albuquerque Center
Mon 10:33:24 PM 35.0169 -111.8411 240° Southwest 416 479 36,000  Level Albuquerque Center
Mon 10:34:25 PM 34.9756 -111.9700 249° West 410 472 36,000  Level Albuquerque Center
Mon 10:35:26 PM 34.9269 -112.1250 249° West 408 470 36,000  Level Albuquerque Center
Mon 10:36:27 PM 34.8872 -112.2528 249° West 406 467 36,000  Level Albuquerque Center
Mon 10:37:29 PM 34.8483 -112.3806 250° West 404 465 36,000  Level Albuquerque Center
Mon 10:38:30 PM 34.8081 -112.5078 249° West 404 465 36,000  Level Albuquerque Center
Mon 10:39:31 PM 34.7681 -112.6347 249° West 403 464 36,000  Level Albuquerque Center
Mon 10:40:32 PM 34.7281 -112.7614 249° West 402 463 36,000  Level Albuquerque Center
Mon 10:41:33 PM 34.6886 -112.8881 249° West 402 463 36,000  Level Albuquerque Center
Mon 10:42:34 PM 34.6478 -113.0150 249° West 404 465 36,000  Level Albuquerque Center
Mon 10:43:36 PM 34.6078 -113.1411 249° West 403 464 36,000  Level Albuquerque Center
Mon 10:44:37 PM 34.5672 -113.2667 249° West 402 463 36,000 -49 Level Albuquerque Center
Mon 10:45:38 PM 34.5181 -113.4183 249° West 403 464 35,900 -934 Descending Albuquerque Center
Mon 10:46:39 PM 34.4772 -113.5444 249° West 403 464 34,100 -934 Descending Albuquerque Center
Mon 10:47:40 PM 34.4383 -113.6625 248° West 409 471 34,000 -49 Descending Albuquerque Center
Mon 10:48:42 PM 34.3958 -113.7931 249° West 414 476 34,000  Level Albuquerque Center
Mon 10:49:43 PM 34.3533 -113.9219 248° West 415 478 34,000 -148 Level Albuquerque Center
Mon 10:50:44 PM 34.3017 -114.0767 248° West 413 475 33,700 -639 Descending Albuquerque Center
Mon 10:51:45 PM 34.2611 -114.2042 249° West 409 471 32,700 -984 Descending Albuquerque Center
Mon 10:52:46 PM 34.2111 -114.3289 244° Southwest 410 472 31,700 -884 Descending Albuquerque Center
Mon 10:53:20 PM 34.1878 -114.3856 244° Southwest 415 478 31,300 -938 Descending Los Angeles Center
Mon 10:54:22 PM 34.1350 -114.5106 243° Southwest 418 481 30,200 -677 Descending Los Angeles Center
Mon 10:55:24 PM 34.0714 -114.6611 243° Southwest 420 483 29,900 -98 Descending Los Angeles Center
Mon 10:56:25 PM 34.0169 -114.7867 242° Southwest 425 489 30,000 49 Climbing Los Angeles Center
Mon 10:57:27 PM 33.9628 -114.9117 242° Southwest 422 486 30,000 -48 Level Los Angeles Center
Mon 10:58:29 PM 33.9111 -115.0353 243° Southwest 416 479 29,900 -435 Descending Los Angeles Center
Mon 10:59:31 PM 33.8575 -115.1592 243° Southwest 418 481 29,100 -976 Descending Los Angeles Center
Mon 11:00:32 PM 33.8053 -115.2819 243° Southwest 414 476 27,900 -1,171 Descending Los Angeles Center
Mon 11:01:34 PM 33.7522 -115.4033 242° Southwest 413 475 26,700 -1,258 Descending Los Angeles Center
Mon 11:02:36 PM 33.6881 -115.5508 242° Southwest 417 480 25,300 -1,268 Descending Los Angeles Center
Mon 11:03:37 PM 33.6361 -115.6722 243° Southwest 411 473 24,100 -927 Descending Los Angeles Center
Mon 11:04:39 PM 33.5811 -115.7906 241° Southwest 407 468 23,400 -1,016 Descending Los Angeles Center
Mon 11:05:41 PM 33.4986 -115.8833 223° Southwest 406 467 22,000 -1,366 Descending Los Angeles Center
Mon 11:06:42 PM 33.4181 -115.9753 224° Southwest 401 461 20,600 -1,610 Descending Los Angeles Center
Mon 11:07:44 PM 33.3397 -116.0650 224° Southwest 394 453 18,700 -1,984 Descending Los Angeles Center
Mon 11:08:46 PM 33.2631 -116.1525 224° Southwest 384 442 16,500 -2,146 Descending Los Angeles Center
Mon 11:09:47 PM 33.1706 -116.2569 223° Southwest 382 440 14,300 -1,822 Descending Los Angeles Center
Mon 11:11:01 PM 33.0964 -116.3419 224° Southwest 377 434 12,400 -1,015 Descending Los Angeles Center
Mon 11:12:03 PM 33.0161 -116.4317 223° Southwest 354 407 12,000 -484 Descending Los Angeles Center
Mon 11:13:05 PM 32.9600 -116.5106 230° Southwest 322 371 11,400 -1,073 Descending Los Angeles Center
Mon 11:14:06 PM 32.9083 -116.5886 232° Southwest 304 350 9,800 -1,610 Descending Los Angeles Center
Mon 11:15:08 PM 32.8475 -116.6781 231° Southwest 297 342 8,100 -1,548 Descending Los Angeles Center
Mon 11:16:10 PM 32.7983 -116.7497 231° Southwest 288 331 6,600 -1,415 Descending Los Angeles Center
Mon 11:17:11 PM 32.7492 -116.8203 230° Southwest 280 322 5,200 -1,171 Descending Los Angeles Center
Mon 11:18:13 PM 32.7031 -116.8894 232° Southwest 273 314 4,200 -809 Descending Los Angeles Center
Mon 11:18:40 PM 32.6833 -116.9333 242° Southwest 257 296 4,000 -621 Descending Southern California TRACON
Mon 11:19:40 PM 32.6833 -117.0000 270° West 209 241 3,300 -700 Descending Southern California TRACON

Login

Don't have an account? Register now (free) for customized features, flight alerts, and more!